createdAt,value
2022-10-15T02:12:12.134Z,5.85
2022-10-15T02:14:48.589Z,3.90
2022-10-15T02:17:17.825Z,4.47
2022-10-15T02:20:17.334Z,3.40
2022-10-15T02:22:56.809Z,3.78
2022-10-15T02:25:25.155Z,4.13
2022-10-15T02:27:53.126Z,4.50
2022-10-15T02:30:20.806Z,3.67
2022-10-15T02:32:53.494Z,4.63
2022-10-15T02:35:22.765Z,4.82
2022-10-15T02:37:53.181Z,5.22
2022-10-15T02:40:30.182Z,4.82
2022-10-15T02:42:57.253Z,4.07
2022-10-15T02:45:24.105Z,4.20
2022-10-15T02:47:51.011Z,5.10
2022-10-15T02:50:31.907Z,8.88
2022-10-15T02:52:59.190Z,7.43
2022-10-15T02:55:26.230Z,7.43
2022-10-15T02:57:53.849Z,7.25
2022-10-15T03:03:48.124Z,5.38
2022-10-15T03:06:15.299Z,4.53
2022-10-15T03:08:42.767Z,5.85
2022-10-15T03:11:10.457Z,7.30
2022-10-15T03:13:38.725Z,9.98
2022-10-15T03:16:06.655Z,5.18
2022-10-15T03:18:36.809Z,6.20
2022-10-15T03:21:06.388Z,5.50
2022-10-15T03:26:14.216Z,7.97
2022-10-15T03:28:41.672Z,8.82
2022-10-15T03:31:09.216Z,8.15
2022-10-15T03:33:35.975Z,9.82
2022-10-15T03:36:03.585Z,12.57
2022-10-15T03:38:32.517Z,13.02
2022-10-15T03:41:00.015Z,16.58
2022-10-15T03:43:37.493Z,16.63
2022-10-15T03:46:07.973Z,15.52
2022-10-15T03:48:41.274Z,10.32
2022-10-15T03:51:10.111Z,11.55
2022-10-15T03:53:37.707Z,31.33
2022-10-15T03:56:06.016Z,19.08
2022-10-15T03:58:39.741Z,25.95
2022-10-15T04:01:13.994Z,15.48
2022-10-15T04:03:41.484Z,14.70
2022-10-15T04:06:10.066Z,16.60
2022-10-15T04:08:38.227Z,22.90
2022-10-15T04:11:19.286Z,17.52
2022-10-15T04:13:53.632Z,10.85
2022-10-15T04:16:20.469Z,10.10
2022-10-15T04:18:49.165Z,8.23
2022-10-15T04:26:46.960Z,7.70
2022-10-15T04:32:55.883Z,8.55
2022-10-15T04:35:25.177Z,9.15
2022-10-15T04:37:59.708Z,11.95
2022-10-15T04:40:46.578Z,9.57
2022-10-15T04:43:18.154Z,8.77
2022-10-15T04:45:45.743Z,14.55
2022-10-15T04:48:18.102Z,14.68
2022-10-15T04:50:45.222Z,16.25
2022-10-15T04:53:21.783Z,12.23
2022-10-15T04:55:52.055Z,10.43
2022-10-15T04:58:18.998Z,14.88
2022-10-15T06:19:24.448Z,7.10
2022-10-15T06:21:50.851Z,7.93
2022-10-15T06:24:17.237Z,7.47
2022-10-15T06:26:43.624Z,7.68
2022-10-15T06:29:10.162Z,6.90
2022-10-15T06:31:36.572Z,7.40
2022-10-15T06:34:02.985Z,4.05
2022-10-15T06:36:29.364Z,7.97
2022-10-15T06:38:55.851Z,4.55
2022-10-15T06:41:22.252Z,4.22
2022-10-15T06:43:49.597Z,5.70
2022-10-15T06:46:16.283Z,5.13
2022-10-15T06:48:42.710Z,2.20
2022-10-15T06:51:09.097Z,3.45
2022-10-15T06:53:36.115Z,2.90
2022-10-15T06:56:03.336Z,2.03
2022-10-15T06:58:35.763Z,1.95
2022-10-15T07:01:04.571Z,8.50
2022-10-15T07:03:31.011Z,2.83
2022-10-15T07:06:03.465Z,2.28
2022-10-15T07:08:29.853Z,5.53
2022-10-15T07:10:56.257Z,2.50
2022-10-15T07:13:24.062Z,3.85
2022-10-15T07:15:53.808Z,2.95
2022-10-15T07:18:20.303Z,5.97
2022-10-15T07:20:46.699Z,3.17
2022-10-15T07:23:13.150Z,2.25
2022-10-15T07:25:39.541Z,1.17
2022-10-15T07:28:06.427Z,1.80
2022-10-15T07:30:33.111Z,1.73
2022-10-15T07:32:59.820Z,3.58
2022-10-15T07:35:27.089Z,2.05
2022-10-15T07:37:53.779Z,0.82
2022-10-15T07:40:20.630Z,3.88
2022-10-15T07:42:54.587Z,1.33
2022-10-15T07:45:22.329Z,4.13
2022-10-15T07:47:48.812Z,1.40
2022-10-15T07:50:15.790Z,1.42
2022-10-15T07:52:44.429Z,2.03
2022-10-15T07:55:11.296Z,3.08
2022-10-15T07:57:37.667Z,3.00
2022-10-15T08:00:05.439Z,3.05
2022-10-15T08:02:38.960Z,1.60
2022-10-15T08:05:05.703Z,5.32
2022-10-15T08:07:32.408Z,2.30
2022-10-15T08:09:58.809Z,2.22
2022-10-15T08:12:26.647Z,1.92
2022-10-15T08:14:53.195Z,2.95
2022-10-15T08:17:19.676Z,2.95
2022-10-15T08:19:46.043Z,2.47
2022-10-15T08:22:12.721Z,1.52
2022-10-15T08:24:39.101Z,2.15
2022-10-15T08:27:05.515Z,1.50
2022-10-15T08:29:31.917Z,2.47
2022-10-15T08:31:58.288Z,1.98
2022-10-15T08:34:26.213Z,1.30
2022-10-15T08:36:52.639Z,2.05
2022-10-15T08:39:19.144Z,1.48
2022-10-15T08:41:49.035Z,3.90
2022-10-15T08:44:24.250Z,2.00
2022-10-15T08:46:54.236Z,1.70
2022-10-15T08:49:30.583Z,2.97
2022-10-15T08:52:04.100Z,2.15
2022-10-15T08:54:32.277Z,1.13
2022-10-15T08:57:11.371Z,2.88
2022-10-15T09:00:01.723Z,2.63
2022-10-15T09:02:36.922Z,2.83
2022-10-15T09:05:25.912Z,3.13
2022-10-15T09:07:57.370Z,1.02
2022-10-15T09:10:50.484Z,3.13
2022-10-15T09:13:30.469Z,1.63
2022-10-15T09:18:32.371Z,3.75
2022-10-15T09:21:00.092Z,0.70
2022-10-15T09:23:30.393Z,1.33
2022-10-15T09:26:12.063Z,1.02
2022-10-15T09:28:56.921Z,1.55
2022-10-15T09:31:27.461Z,1.20
2022-10-15T09:34:05.000Z,4.97
2022-10-15T09:36:36.909Z,2.25
2022-10-15T09:39:36.947Z,2.63
2022-10-15T09:42:15.436Z,2.17
2022-10-15T09:44:44.139Z,2.08
2022-10-15T09:47:28.542Z,2.03
2022-10-15T09:50:05.686Z,2.38
2022-10-15T09:52:50.858Z,3.25
2022-10-15T09:55:42.060Z,2.40
2022-10-15T09:58:15.420Z,2.05
2022-10-15T10:00:55.768Z,4.07
2022-10-15T10:03:24.471Z,2.25
2022-10-15T10:05:51.436Z,3.58
2022-10-15T10:08:22.764Z,3.30
2022-10-15T10:11:00.715Z,5.25
2022-10-15T10:13:32.719Z,6.00
2022-10-15T10:16:05.798Z,3.30
2022-10-15T10:18:32.510Z,4.53
2022-10-15T10:21:01.529Z,4.03
2022-10-15T10:23:39.318Z,4.18
2022-10-15T10:26:07.288Z,4.25
2022-10-15T10:28:48.440Z,4.00
2022-10-15T10:31:14.904Z,1.98
2022-10-15T10:33:49.082Z,3.40
2022-10-15T10:36:21.512Z,1.90
2022-10-15T10:39:23.696Z,2.67
2022-10-15T10:41:52.659Z,4.25
2022-10-15T10:44:31.300Z,1.30
2022-10-15T10:47:24.615Z,1.60
2022-10-15T10:49:56.352Z,4.05
2022-10-15T10:52:32.350Z,2.55
2022-10-15T10:55:02.924Z,2.78
2022-10-15T10:57:54.365Z,3.63
2022-10-15T11:00:32.658Z,1.95
2022-10-15T11:02:59.321Z,1.90
2022-10-15T11:05:27.984Z,2.40
2022-10-15T11:08:20.732Z,1.50
2022-10-15T11:11:11.233Z,1.35
2022-10-15T11:14:05.682Z,2.20
2022-10-15T11:16:45.603Z,1.15
2022-10-15T11:19:54.631Z,1.00
2022-10-15T11:22:23.316Z,1.45
2022-10-15T11:25:06.656Z,2.15
2022-10-15T11:27:40.497Z,1.45
2022-10-15T11:30:32.201Z,2.63
2022-10-15T11:33:25.592Z,3.55
2022-10-15T11:35:59.579Z,1.10
2022-10-15T11:38:45.943Z,4.13
2022-10-15T11:41:29.099Z,3.13
2022-10-15T11:44:08.027Z,4.18
2022-10-15T11:46:55.854Z,1.33
2022-10-15T11:49:32.684Z,1.67
2022-10-15T11:52:13.736Z,1.30
2022-10-15T11:55:06.431Z,1.70
2022-10-15T11:57:34.189Z,3.47
2022-10-15T12:00:14.504Z,3.05
2022-10-15T12:02:43.547Z,1.95
2022-10-15T12:05:10.432Z,3.35
2022-10-15T12:07:45.628Z,2.63
2022-10-15T12:10:51.967Z,4.32
2022-10-15T12:13:39.022Z,3.40
2022-10-15T12:16:17.560Z,5.75
2022-10-15T12:18:50.815Z,2.28
2022-10-15T12:21:42.481Z,3.78
2022-10-15T12:24:37.801Z,3.22
2022-10-15T12:27:19.144Z,2.40
2022-10-15T12:29:45.420Z,1.98
2022-10-15T12:32:22.336Z,2.67
2022-10-15T12:34:54.924Z,2.95
2022-10-15T12:37:23.818Z,1.67
2022-10-15T12:40:00.246Z,3.38
2022-10-15T12:42:29.792Z,2.35
2022-10-15T12:44:57.167Z,3.60
2022-10-15T12:48:00.787Z,1.90
2022-10-15T12:50:30.977Z,2.55
2022-10-15T12:53:08.440Z,2.28
2022-10-15T12:55:39.920Z,3.78
2022-10-15T12:58:52.631Z,1.42
2022-10-15T13:01:18.957Z,4.43
2022-10-15T13:03:48.363Z,2.25
2022-10-15T13:06:20.890Z,6.00
2022-10-15T13:08:49.028Z,1.90
2022-10-15T13:11:30.310Z,1.95
2022-10-15T13:14:01.856Z,2.90
2022-10-15T13:16:29.088Z,1.45
2022-10-15T13:18:56.529Z,1.90
2022-10-15T13:21:53.767Z,3.35
2022-10-15T13:24:23.168Z,0.85
2022-10-15T13:26:50.768Z,1.88
2022-10-15T13:29:20.325Z,2.60
2022-10-15T13:31:47.978Z,3.63
2022-10-15T13:34:35.527Z,2.80
2022-10-15T13:37:03.198Z,4.35
2022-10-15T13:39:35.540Z,2.13
2022-10-15T13:42:15.348Z,2.25
2022-10-15T13:44:43.092Z,4.35
2022-10-15T13:47:33.014Z,2.25
2022-10-15T13:50:25.575Z,4.10
2022-10-15T13:53:16.216Z,3.28
2022-10-15T13:55:47.575Z,3.22
2022-10-15T13:58:23.662Z,1.85
2022-10-15T14:01:13.372Z,2.63
2022-10-15T14:03:55.728Z,1.85
2022-10-15T14:06:26.000Z,3.30
2022-10-15T14:08:55.731Z,2.15
2022-10-15T14:11:22.851Z,1.90
2022-10-15T14:13:54.931Z,1.15
2022-10-15T14:16:31.641Z,1.45
2022-10-15T14:19:07.240Z,0.85
2022-10-15T14:21:34.795Z,2.25
2022-10-15T14:24:06.888Z,1.38
2022-10-15T14:26:34.911Z,1.20
2022-10-15T14:29:02.047Z,0.68
2022-10-15T14:31:38.239Z,1.85
2022-10-15T14:34:29.539Z,1.33
2022-10-15T14:36:56.168Z,2.80
2022-10-15T14:39:34.844Z,0.80
2022-10-15T14:42:05.687Z,3.42
2022-10-15T14:44:43.856Z,3.05
2022-10-15T14:47:18.076Z,2.67
2022-10-15T14:49:44.769Z,2.53
2022-10-15T14:52:19.381Z,2.83
2022-10-15T14:55:07.199Z,4.35
2022-10-15T14:57:38.304Z,1.58
2022-10-15T15:00:14.392Z,2.78
2022-10-15T15:02:40.874Z,2.75
2022-10-15T15:05:09.347Z,2.08
2022-10-15T15:07:35.744Z,1.90
2022-10-15T15:10:02.184Z,10.48
2022-10-15T15:12:29.157Z,1.08
2022-10-15T15:14:56.332Z,3.28
2022-10-15T15:17:27.602Z,1.33
2022-10-15T15:19:55.545Z,2.13
2022-10-15T15:22:32.063Z,1.35
2022-10-15T15:25:00.008Z,4.55
2022-10-15T15:27:28.732Z,1.13
2022-10-15T15:29:56.090Z,1.23
2022-10-15T15:32:24.104Z,1.00
2022-10-15T15:34:52.341Z,1.42
2022-10-15T15:37:21.319Z,3.55
2022-10-15T15:39:48.010Z,1.90
2022-10-15T15:42:22.132Z,1.42
2022-10-15T15:44:48.964Z,1.17
2022-10-15T15:47:15.848Z,2.17
2022-10-15T15:49:42.370Z,4.05
2022-10-15T15:52:13.820Z,2.83
2022-10-15T15:54:40.968Z,2.60
2022-10-15T15:57:07.496Z,3.45
2022-10-15T15:59:33.979Z,2.50
2022-10-15T16:02:00.860Z,3.72
2022-10-15T16:04:27.462Z,1.55
2022-10-15T16:06:53.881Z,4.47
2022-10-15T16:09:22.443Z,1.58
2022-10-15T16:11:50.161Z,0.88
2022-10-15T16:14:16.764Z,2.40
2022-10-15T16:16:43.819Z,1.85
2022-10-15T16:19:12.059Z,1.98
2022-10-15T16:21:38.435Z,3.00
2022-10-15T16:24:05.337Z,6.25
2022-10-15T16:26:32.886Z,2.80
2022-10-15T16:28:59.320Z,2.35
2022-10-15T16:31:30.316Z,2.03
2022-10-15T16:33:57.022Z,3.15
2022-10-15T16:36:23.413Z,4.28
2022-10-15T16:38:49.797Z,2.25
2022-10-15T16:41:18.623Z,1.15
2022-10-15T16:43:45.595Z,3.40
2022-10-15T16:46:12.009Z,3.60
2022-10-15T16:48:38.381Z,1.75
2022-10-15T16:51:12.523Z,2.50
2022-10-15T16:53:40.386Z,1.88
2022-10-15T16:56:09.813Z,3.28
2022-10-15T17:07:24.317Z,3.25
2022-10-15T17:09:50.920Z,5.10
2022-10-15T17:12:17.679Z,4.97
2022-10-15T17:14:50.599Z,3.13
2022-10-15T17:17:17.234Z,2.03
2022-10-15T17:19:43.714Z,1.38
2022-10-15T17:22:10.152Z,2.40
2022-10-15T17:24:36.608Z,1.27
2022-10-15T17:27:03.574Z,3.47
2022-10-15T17:29:32.571Z,2.35
2022-10-15T17:32:00.479Z,3.10
2022-10-15T17:34:27.885Z,3.63
2022-10-15T17:36:55.941Z,3.80
2022-10-15T17:39:22.507Z,2.38
2022-10-15T17:41:50.278Z,1.80
2022-10-15T17:44:16.739Z,2.90
2022-10-15T17:46:43.254Z,3.47
2022-10-15T17:49:10.911Z,1.88
2022-10-15T17:54:06.038Z,1.98
2022-10-15T17:56:34.830Z,5.50
2022-10-15T17:59:04.699Z,4.82
2022-10-15T18:01:57.915Z,3.10
2022-10-15T18:04:25.046Z,1.92
2022-10-15T18:06:51.431Z,2.75
2022-10-15T18:09:24.843Z,2.80
2022-10-15T18:11:54.491Z,2.17
2022-10-15T18:14:21.596Z,2.72
2022-10-15T18:16:48.176Z,3.33
2022-10-15T18:19:14.651Z,2.67
2022-10-15T18:21:50.560Z,2.35
2022-10-15T18:24:21.656Z,0.98
2022-10-15T18:26:52.155Z,2.30
2022-10-15T18:29:42.296Z,2.97
2022-10-15T18:32:08.767Z,3.17
2022-10-15T18:34:35.713Z,1.77
2022-10-15T18:37:02.212Z,2.38
2022-10-15T18:39:28.698Z,3.13
2022-10-15T18:41:55.319Z,3.63
2022-10-15T18:44:23.247Z,1.95
2022-10-15T18:46:50.377Z,2.45
2022-10-15T18:49:20.009Z,1.45
2022-10-15T18:51:51.652Z,0.82
2022-10-15T18:54:20.794Z,2.95
2022-10-15T18:56:47.356Z,1.63
2022-10-15T18:59:17.647Z,3.55
2022-10-15T19:01:44.328Z,1.65
2022-10-15T19:04:13.561Z,2.33
2022-10-15T19:06:45.155Z,0.70
2022-10-15T19:09:15.893Z,5.45
2022-10-15T19:11:43.865Z,3.63
2022-10-15T19:14:11.699Z,1.10
2022-10-15T19:16:38.776Z,1.42
2022-10-15T19:19:12.456Z,2.67
2022-10-15T19:21:39.211Z,1.05
2022-10-15T19:24:05.807Z,1.75
2022-10-15T19:26:32.405Z,1.45
2022-10-15T19:29:01.320Z,1.83
2022-10-15T19:31:33.716Z,2.90
2022-10-15T19:34:00.385Z,2.00
2022-10-15T19:36:33.654Z,3.47
2022-10-15T19:39:03.991Z,3.30
2022-10-15T19:41:30.528Z,1.52
2022-10-15T19:43:58.202Z,2.50
2022-10-15T19:46:26.826Z,3.38
2022-10-15T19:48:53.270Z,1.50
2022-10-15T19:51:21.327Z,1.50
2022-10-15T19:53:51.381Z,1.35
2022-10-15T19:56:18.216Z,1.27
2022-10-15T19:58:44.634Z,6.07
2022-10-15T20:01:11.597Z,2.88
2022-10-15T20:03:38.530Z,0.85
2022-10-15T20:06:08.522Z,1.00
2022-10-15T20:08:35.630Z,1.05
2022-10-15T20:11:08.428Z,2.22
2022-10-15T20:13:36.057Z,2.20
2022-10-15T20:16:07.995Z,2.20
2022-10-15T20:18:38.141Z,2.38
2022-10-15T20:21:13.745Z,2.72
2022-10-15T20:23:41.591Z,4.45
2022-10-15T20:26:13.609Z,3.83
2022-10-15T20:28:41.329Z,2.30
2022-10-15T20:31:09.919Z,3.17
2022-10-15T20:33:37.024Z,2.15
2022-10-15T20:36:07.020Z,3.13
2022-10-15T20:38:33.916Z,0.98
2022-10-15T20:41:00.697Z,4.50
2022-10-15T20:43:27.283Z,2.47
2022-10-15T20:45:56.025Z,1.27
2022-10-15T20:48:25.715Z,0.90
2022-10-15T20:50:54.462Z,0.95
2022-10-15T20:53:22.545Z,2.28
2022-10-15T20:55:49.701Z,5.50
2022-10-15T21:00:42.838Z,0.95
2022-10-15T21:03:09.321Z,1.25
2022-10-15T21:05:35.814Z,1.08
2022-10-15T21:08:02.555Z,1.08
2022-10-15T21:10:29.093Z,0.60
2022-10-15T21:12:55.590Z,3.25
2022-10-15T21:15:22.364Z,0.55
2022-10-15T21:17:48.870Z,2.00
2022-10-15T21:20:15.332Z,2.90
2022-10-15T21:22:41.774Z,3.95
2022-10-15T21:25:08.278Z,2.58
2022-10-15T21:27:34.709Z,2.78
2022-10-15T21:30:01.187Z,1.42
2022-10-15T21:32:27.863Z,3.05
2022-10-15T21:34:54.325Z,2.53
2022-10-15T21:37:20.827Z,4.22
2022-10-15T21:39:47.357Z,2.17
2022-10-15T21:42:13.830Z,5.25
2022-10-15T21:44:40.379Z,2.83
2022-10-15T21:47:09.258Z,3.03
2022-10-15T21:49:38.091Z,3.25
2022-10-15T21:52:04.633Z,4.35
2022-10-15T21:54:31.200Z,3.50
2022-10-15T21:56:57.640Z,3.45
2022-10-15T21:59:24.053Z,6.05
2022-10-15T22:01:50.596Z,6.07
2022-10-15T22:04:17.058Z,1.83
2022-10-15T22:06:43.586Z,2.22
2022-10-15T22:09:11.044Z,3.03
2022-10-15T22:11:39.456Z,2.05
2022-10-15T22:14:08.578Z,3.63
2022-10-15T22:16:36.606Z,1.98
2022-10-15T22:19:04.174Z,4.45
2022-10-15T22:21:37.454Z,2.30
2022-10-15T22:24:08.126Z,3.50
2022-10-15T22:26:37.604Z,2.10
2022-10-15T22:29:06.055Z,1.75
2022-10-15T22:31:34.173Z,4.43
2022-10-15T22:34:01.116Z,3.30
2022-10-15T22:36:29.525Z,4.15
2022-10-15T22:39:01.590Z,3.40
2022-10-15T22:41:32.453Z,6.35
2022-10-15T22:43:59.230Z,3.70
2022-10-15T22:46:26.104Z,4.65
2022-10-15T22:48:54.055Z,5.80
2022-10-15T22:51:20.985Z,4.60
2022-10-15T22:53:47.492Z,3.35
2022-10-15T22:56:18.541Z,3.33
2022-10-15T22:58:45.466Z,6.13
2022-10-15T23:01:16.242Z,7.32
2022-10-15T23:03:45.001Z,3.88
2022-10-15T23:06:12.041Z,4.60
2022-10-15T23:08:38.498Z,4.07
2022-10-15T23:11:12.800Z,3.97
2022-10-15T23:13:40.729Z,2.63
2022-10-15T23:16:14.585Z,1.77
2022-10-15T23:18:43.350Z,2.50
2022-10-15T23:21:20.469Z,1.95
2022-10-15T23:23:48.207Z,1.65
2022-10-15T23:26:15.842Z,2.03
2022-10-15T23:28:43.715Z,2.00
2022-10-15T23:31:17.202Z,1.08
2022-10-15T23:33:44.437Z,2.30
2022-10-15T23:36:10.991Z,1.92
2022-10-15T23:38:37.400Z,2.30
2022-10-15T23:41:06.469Z,1.50
2022-10-15T23:43:33.146Z,1.48
2022-10-15T23:46:00.148Z,5.00
2022-10-15T23:48:27.500Z,4.05
2022-10-15T23:50:58.078Z,2.75
2022-10-15T23:53:28.970Z,3.53
2022-10-15T23:55:55.377Z,2.53
2022-10-15T23:58:21.883Z,1.98
